sensor_id;sensor_type;location;lat;lon;timestamp;P1;durP1;ratioP1;P2;durP2;ratioP2
10007;SDS011;5043;41.766;26.204;2023-04-06T00:01:34;8.90;;;7.83;;
10007;SDS011;5043;41.766;26.204;2023-04-06T00:03:59;8.50;;;7.70;;
10007;SDS011;5043;41.766;26.204;2023-04-06T00:06:25;11.33;;;8.73;;
10007;SDS011;5043;41.766;26.204;2023-04-06T00:08:50;8.63;;;7.83;;
10007;SDS011;5043;41.766;26.204;2023-04-06T00:11:16;12.23;;;8.80;;
10007;SDS011;5043;41.766;26.204;2023-04-06T00:13:41;8.70;;;7.73;;
10007;SDS011;5043;41.766;26.204;2023-04-06T00:16:07;8.80;;;7.90;;
10007;SDS011;5043;41.766;26.204;2023-04-06T00:18:32;11.37;;;9.00;;
10007;SDS011;5043;41.766;26.204;2023-04-06T00:20:58;8.33;;;7.00;;
10007;SDS011;5043;41.766;26.204;2023-04-06T00:23:23;9.50;;;7.90;;
10007;SDS011;5043;41.766;26.204;2023-04-06T00:25:49;8.00;;;7.20;;
10007;SDS011;5043;41.766;26.204;2023-04-06T00:28:14;8.43;;;7.53;;
10007;SDS011;5043;41.766;26.204;2023-04-06T00:30:40;10.10;;;8.10;;
10007;SDS011;5043;41.766;26.204;2023-04-06T00:33:06;9.13;;;8.20;;
10007;SDS011;5043;41.766;26.204;2023-04-06T00:35:32;8.63;;;7.73;;
10007;SDS011;5043;41.766;26.204;2023-04-06T00:37:57;10.70;;;8.57;;
10007;SDS011;5043;41.766;26.204;2023-04-06T00:40:23;9.47;;;8.47;;
10007;SDS011;5043;41.766;26.204;2023-04-06T00:42:48;8.77;;;7.90;;
10007;SDS011;5043;41.766;26.204;2023-04-06T00:45:14;8.87;;;8.00;;
10007;SDS011;5043;41.766;26.204;2023-04-06T00:47:40;7.87;;;7.17;;
10007;SDS011;5043;41.766;26.204;2023-04-06T00:50:05;8.87;;;7.97;;
10007;SDS011;5043;41.766;26.204;2023-04-06T00:52:31;8.13;;;7.33;;
10007;SDS011;5043;41.766;26.204;2023-04-06T00:54:57;17.50;;;12.17;;
10007;SDS011;5043;41.766;26.204;2023-04-06T00:57:22;7.90;;;6.93;;
10007;SDS011;5043;41.766;26.204;2023-04-06T00:59:48;6.80;;;6.20;;
10007;SDS011;5043;41.766;26.204;2023-04-06T01:02:13;7.07;;;6.37;;
10007;SDS011;5043;41.766;26.204;2023-04-06T01:04:39;7.67;;;6.83;;
10007;SDS011;5043;41.766;26.204;2023-04-06T01:07:05;8.13;;;6.33;;
10007;SDS011;5043;41.766;26.204;2023-04-06T01:09:30;7.03;;;6.33;;
10007;SDS011;5043;41.766;26.204;2023-04-06T01:11:56;6.63;;;5.93;;
10007;SDS011;5043;41.766;26.204;2023-04-06T01:14:23;6.97;;;6.27;;
10007;SDS011;5043;41.766;26.204;2023-04-06T01:16:50;6.97;;;6.27;;
10007;SDS011;5043;41.766;26.204;2023-04-06T01:19:16;7.27;;;6.57;;
10007;SDS011;5043;41.766;26.204;2023-04-06T01:21:41;7.17;;;6.40;;
10007;SDS011;5043;41.766;26.204;2023-04-06T01:24:07;7.60;;;6.80;;
10007;SDS011;5043;41.766;26.204;2023-04-06T01:26:33;8.53;;;7.63;;
10007;SDS011;5043;41.766;26.204;2023-04-06T01:29:00;7.27;;;6.43;;
10007;SDS011;5043;41.766;26.204;2023-04-06T01:31:26;7.30;;;6.60;;
10007;SDS011;5043;41.766;26.204;2023-04-06T01:33:52;8.00;;;7.20;;
10007;SDS011;5043;41.766;26.204;2023-04-06T01:36:18;7.67;;;6.80;;
10007;SDS011;5043;41.766;26.204;2023-04-06T01:38:43;8.70;;;7.00;;
10007;SDS011;5043;41.766;26.204;2023-04-06T01:41:09;7.33;;;6.63;;
10007;SDS011;5043;41.766;26.204;2023-04-06T01:43:35;8.70;;;7.60;;
10007;SDS011;5043;41.766;26.204;2023-04-06T01:46:01;11.13;;;8.27;;
10007;SDS011;5043;41.766;26.204;2023-04-06T01:48:27;9.20;;;8.07;;
10007;SDS011;5043;41.766;26.204;2023-04-06T01:50:53;8.60;;;7.70;;
10007;SDS011;5043;41.766;26.204;2023-04-06T01:53:18;9.47;;;8.10;;
10007;SDS011;5043;41.766;26.204;2023-04-06T01:55:44;10.40;;;8.40;;
10007;SDS011;5043;41.766;26.204;2023-04-06T01:58:10;9.07;;;7.80;;
10007;SDS011;5043;41.766;26.204;2023-04-06T02:00:35;10.77;;;7.87;;
10007;SDS011;5043;41.766;26.204;2023-04-06T02:03:01;9.00;;;8.10;;
10007;SDS011;5043;41.766;26.204;2023-04-06T02:05:26;13.83;;;9.47;;
10007;SDS011;5043;41.766;26.204;2023-04-06T02:07:54;10.47;;;9.43;;
10007;SDS011;5043;41.766;26.204;2023-04-06T02:10:19;11.00;;;9.90;;
10007;SDS011;5043;41.766;26.204;2023-04-06T02:12:45;13.20;;;11.17;;
10007;SDS011;5043;41.766;26.204;2023-04-06T02:15:10;12.87;;;11.33;;
10007;SDS011;5043;41.766;26.204;2023-04-06T02:17:38;15.33;;;11.70;;
10007;SDS011;5043;41.766;26.204;2023-04-06T02:20:04;15.17;;;12.50;;
10007;SDS011;5043;41.766;26.204;2023-04-06T02:22:30;14.77;;;12.47;;
10007;SDS011;5043;41.766;26.204;2023-04-06T02:24:55;14.93;;;11.83;;
10007;SDS011;5043;41.766;26.204;2023-04-06T02:27:21;14.77;;;11.83;;
10007;SDS011;5043;41.766;26.204;2023-04-06T02:29:46;12.50;;;10.60;;
10007;SDS011;5043;41.766;26.204;2023-04-06T02:32:12;13.53;;;11.40;;
10007;SDS011;5043;41.766;26.204;2023-04-06T02:34:37;18.57;;;13.03;;
10007;SDS011;5043;41.766;26.204;2023-04-06T02:37:02;24.63;;;14.73;;
10007;SDS011;5043;41.766;26.204;2023-04-06T02:39:28;23.97;;;15.73;;
10007;SDS011;5043;41.766;26.204;2023-04-06T02:41:53;19.13;;;13.47;;
10007;SDS011;5043;41.766;26.204;2023-04-06T02:44:20;14.40;;;12.27;;
10007;SDS011;5043;41.766;26.204;2023-04-06T02:46:45;14.10;;;10.83;;
10007;SDS011;5043;41.766;26.204;2023-04-06T02:49:11;15.40;;;11.57;;
10007;SDS011;5043;41.766;26.204;2023-04-06T02:51:36;12.90;;;11.47;;
10007;SDS011;5043;41.766;26.204;2023-04-06T02:54:01;13.97;;;11.13;;
10007;SDS011;5043;41.766;26.204;2023-04-06T02:56:30;12.77;;;10.83;;
10007;SDS011;5043;41.766;26.204;2023-04-06T02:58:55;11.50;;;10.30;;
10007;SDS011;5043;41.766;26.204;2023-04-06T03:01:21;13.03;;;10.70;;
10007;SDS011;5043;41.766;26.204;2023-04-06T03:03:46;14.30;;;11.03;;
10007;SDS011;5043;41.766;26.204;2023-04-06T03:06:12;14.87;;;11.43;;
10007;SDS011;5043;41.766;26.204;2023-04-06T03:08:37;14.57;;;10.70;;
10007;SDS011;5043;41.766;26.204;2023-04-06T03:11:02;11.77;;;10.13;;
10007;SDS011;5043;41.766;26.204;2023-04-06T03:13:28;11.30;;;10.10;;
10007;SDS011;5043;41.766;26.204;2023-04-06T03:15:53;13.23;;;10.60;;
10007;SDS011;5043;41.766;26.204;2023-04-06T03:18:23;11.57;;;10.17;;
10007;SDS011;5043;41.766;26.204;2023-04-06T03:20:49;13.17;;;10.33;;
10007;SDS011;5043;41.766;26.204;2023-04-06T03:23:15;10.70;;;9.60;;
10007;SDS011;5043;41.766;26.204;2023-04-06T03:25:40;13.03;;;10.17;;
10007;SDS011;5043;41.766;26.204;2023-04-06T03:28:06;10.20;;;9.20;;
10007;SDS011;5043;41.766;26.204;2023-04-06T03:30:31;11.23;;;9.70;;
10007;SDS011;5043;41.766;26.204;2023-04-06T03:32:57;11.77;;;9.80;;
10007;SDS011;5043;41.766;26.204;2023-04-06T03:35:22;20.87;;;11.23;;
10007;SDS011;5043;41.766;26.204;2023-04-06T03:37:47;13.43;;;10.83;;
10007;SDS011;5043;41.766;26.204;2023-04-06T03:40:13;12.60;;;9.50;;
10007;SDS011;5043;41.766;26.204;2023-04-06T03:42:38;15.80;;;10.33;;
10007;SDS011;5043;41.766;26.204;2023-04-06T03:45:04;13.47;;;10.33;;
10007;SDS011;5043;41.766;26.204;2023-04-06T03:47:30;12.57;;;10.90;;
10007;SDS011;5043;41.766;26.204;2023-04-06T03:49:55;15.03;;;11.03;;
10007;SDS011;5043;41.766;26.204;2023-04-06T03:52:21;16.20;;;11.57;;
10007;SDS011;5043;41.766;26.204;2023-04-06T03:54:48;17.43;;;11.77;;
10007;SDS011;5043;41.766;26.204;2023-04-06T03:57:13;12.40;;;11.00;;
10007;SDS011;5043;41.766;26.204;2023-04-06T03:59:39;16.67;;;12.03;;
10007;SDS011;5043;41.766;26.204;2023-04-06T04:02:05;12.40;;;10.63;;
10007;SDS011;5043;41.766;26.204;2023-04-06T04:04:30;12.67;;;11.33;;
10007;SDS011;5043;41.766;26.204;2023-04-06T04:06:56;14.80;;;12.00;;
10007;SDS011;5043;41.766;26.204;2023-04-06T04:09:22;13.10;;;11.63;;
10007;SDS011;5043;41.766;26.204;2023-04-06T04:11:47;12.90;;;11.30;;
10007;SDS011;5043;41.766;26.204;2023-04-06T04:14:14;12.77;;;11.47;;
10007;SDS011;5043;41.766;26.204;2023-04-06T04:16:39;12.37;;;10.73;;
10007;SDS011;5043;41.766;26.204;2023-04-06T04:19:06;15.37;;;11.40;;
10007;SDS011;5043;41.766;26.204;2023-04-06T04:21:31;13.97;;;12.43;;
10007;SDS011;5043;41.766;26.204;2023-04-06T04:23:57;14.00;;;12.50;;
10007;SDS011;5043;41.766;26.204;2023-04-06T04:26:23;20.07;;;12.40;;
10007;SDS011;5043;41.766;26.204;2023-04-06T04:28:49;14.73;;;11.40;;
10007;SDS011;5043;41.766;26.204;2023-04-06T04:31:15;13.20;;;10.57;;
10007;SDS011;5043;41.766;26.204;2023-04-06T04:33:43;11.00;;;9.37;;
10007;SDS011;5043;41.766;26.204;2023-04-06T04:36:08;12.03;;;9.40;;
10007;SDS011;5043;41.766;26.204;2023-04-06T04:38:35;11.27;;;10.07;;
10007;SDS011;5043;41.766;26.204;2023-04-06T04:41:00;13.93;;;9.67;;
10007;SDS011;5043;41.766;26.204;2023-04-06T04:43:26;13.83;;;10.80;;
10007;SDS011;5043;41.766;26.204;2023-04-06T04:45:51;14.07;;;9.10;;
10007;SDS011;5043;41.766;26.204;2023-04-06T04:48:17;9.63;;;8.27;;
10007;SDS011;5043;41.766;26.204;2023-04-06T04:50:43;10.83;;;7.70;;
10007;SDS011;5043;41.766;26.204;2023-04-06T04:53:08;8.90;;;7.70;;
10007;SDS011;5043;41.766;26.204;2023-04-06T04:55:34;9.53;;;7.90;;
10007;SDS011;5043;41.766;26.204;2023-04-06T04:58:00;9.53;;;8.50;;
10007;SDS011;5043;41.766;26.204;2023-04-06T05:00:25;8.10;;;7.20;;
10007;SDS011;5043;41.766;26.204;2023-04-06T05:02:51;8.43;;;7.57;;
10007;SDS011;5043;41.766;26.204;2023-04-06T05:05:16;8.27;;;7.47;;
10007;SDS011;5043;41.766;26.204;2023-04-06T05:07:41;8.37;;;7.57;;
10007;SDS011;5043;41.766;26.204;2023-04-06T05:10:07;10.40;;;7.57;;
10007;SDS011;5043;41.766;26.204;2023-04-06T05:12:33;8.50;;;7.60;;
10007;SDS011;5043;41.766;26.204;2023-04-06T05:14:58;11.40;;;8.83;;
10007;SDS011;5043;41.766;26.204;2023-04-06T05:17:24;9.23;;;7.97;;
10007;SDS011;5043;41.766;26.204;2023-04-06T05:19:50;14.07;;;9.70;;
10007;SDS011;5043;41.766;26.204;2023-04-06T05:22:16;9.40;;;8.37;;
10007;SDS011;5043;41.766;26.204;2023-04-06T05:24:42;8.50;;;7.70;;
10007;SDS011;5043;41.766;26.204;2023-04-06T05:27:08;8.97;;;7.60;;
10007;SDS011;5043;41.766;26.204;2023-04-06T05:29:34;8.87;;;7.63;;
10007;SDS011;5043;41.766;26.204;2023-04-06T05:31:59;9.00;;;7.03;;
10007;SDS011;5043;41.766;26.204;2023-04-06T05:34:25;7.53;;;6.47;;
10007;SDS011;5043;41.766;26.204;2023-04-06T05:36:51;8.17;;;7.37;;
10007;SDS011;5043;41.766;26.204;2023-04-06T05:39:16;7.63;;;6.93;;
10007;SDS011;5043;41.766;26.204;2023-04-06T05:41:42;7.23;;;6.53;;
10007;SDS011;5043;41.766;26.204;2023-04-06T05:44:07;7.83;;;7.03;;
10007;SDS011;5043;41.766;26.204;2023-04-06T05:46:33;10.07;;;7.67;;
10007;SDS011;5043;41.766;26.204;2023-04-06T05:48:58;12.67;;;10.03;;
10007;SDS011;5043;41.766;26.204;2023-04-06T05:51:24;10.83;;;8.33;;
10007;SDS011;5043;41.766;26.204;2023-04-06T05:53:50;8.47;;;7.50;;
10007;SDS011;5043;41.766;26.204;2023-04-06T05:56:15;9.70;;;7.50;;
10007;SDS011;5043;41.766;26.204;2023-04-06T05:58:41;8.13;;;7.33;;
10007;SDS011;5043;41.766;26.204;2023-04-06T06:01:07;13.60;;;7.97;;
10007;SDS011;5043;41.766;26.204;2023-04-06T06:03:33;8.13;;;7.33;;
10007;SDS011;5043;41.766;26.204;2023-04-06T06:06:02;14.17;;;9.13;;
10007;SDS011;5043;41.766;26.204;2023-04-06T06:08:29;11.93;;;8.50;;
10007;SDS011;5043;41.766;26.204;2023-04-06T06:10:55;8.20;;;6.93;;
10007;SDS011;5043;41.766;26.204;2023-04-06T06:13:22;10.00;;;7.73;;
10007;SDS011;5043;41.766;26.204;2023-04-06T06:15:48;10.70;;;7.80;;
10007;SDS011;5043;41.766;26.204;2023-04-06T06:18:14;8.33;;;7.53;;
10007;SDS011;5043;41.766;26.204;2023-04-06T06:20:39;8.63;;;7.73;;
10007;SDS011;5043;41.766;26.204;2023-04-06T06:23:05;7.93;;;7.13;;
10007;SDS011;5043;41.766;26.204;2023-04-06T06:25:30;8.70;;;7.13;;
10007;SDS011;5043;41.766;26.204;2023-04-06T06:27:57;7.93;;;6.97;;
10007;SDS011;5043;41.766;26.204;2023-04-06T06:30:22;8.40;;;7.53;;
10007;SDS011;5043;41.766;26.204;2023-04-06T06:32:47;9.33;;;7.67;;
10007;SDS011;5043;41.766;26.204;2023-04-06T06:35:15;9.70;;;7.63;;
10007;SDS011;5043;41.766;26.204;2023-04-06T06:37:40;9.23;;;7.83;;
10007;SDS011;5043;41.766;26.204;2023-04-06T06:40:06;12.30;;;7.57;;
10007;SDS011;5043;41.766;26.204;2023-04-06T06:42:32;12.23;;;8.03;;
10007;SDS011;5043;41.766;26.204;2023-04-06T06:44:57;10.87;;;8.07;;
10007;SDS011;5043;41.766;26.204;2023-04-06T06:47:23;8.90;;;7.73;;
10007;SDS011;5043;41.766;26.204;2023-04-06T06:49:48;13.70;;;7.57;;
10007;SDS011;5043;41.766;26.204;2023-04-06T06:52:14;10.87;;;8.37;;
10007;SDS011;5043;41.766;26.204;2023-04-06T06:54:39;9.23;;;7.70;;
10007;SDS011;5043;41.766;26.204;2023-04-06T06:57:05;10.20;;;7.80;;
10007;SDS011;5043;41.766;26.204;2023-04-06T06:59:30;9.77;;;8.33;;
10007;SDS011;5043;41.766;26.204;2023-04-06T07:01:56;10.80;;;8.77;;
10007;SDS011;5043;41.766;26.204;2023-04-06T07:04:21;9.20;;;8.23;;
10007;SDS011;5043;41.766;26.204;2023-04-06T07:06:47;9.40;;;8.40;;
10007;SDS011;5043;41.766;26.204;2023-04-06T07:09:12;9.70;;;8.53;;
10007;SDS011;5043;41.766;26.204;2023-04-06T07:11:38;9.10;;;7.73;;
10007;SDS011;5043;41.766;26.204;2023-04-06T07:14:03;11.90;;;8.40;;
10007;SDS011;5043;41.766;26.204;2023-04-06T07:16:29;10.40;;;7.70;;
10007;SDS011;5043;41.766;26.204;2023-04-06T07:18:55;11.37;;;8.00;;
10007;SDS011;5043;41.766;26.204;2023-04-06T07:21:21;8.52;;;7.63;;
10007;SDS011;5043;41.766;26.204;2023-04-06T07:23:46;11.63;;;8.15;;
10007;SDS011;5043;41.766;26.204;2023-04-06T07:26:13;8.90;;;8.00;;
10007;SDS011;5043;41.766;26.204;2023-04-06T07:28:38;8.67;;;7.80;;
10007;SDS011;5043;41.766;26.204;2023-04-06T07:31:04;9.23;;;7.93;;
10007;SDS011;5043;41.766;26.204;2023-04-06T07:33:30;8.43;;;6.97;;
10007;SDS011;5043;41.766;26.204;2023-04-06T07:35:56;9.23;;;7.30;;
10007;SDS011;5043;41.766;26.204;2023-04-06T07:38:22;7.95;;;7.03;;
10007;SDS011;5043;41.766;26.204;2023-04-06T07:40:47;10.13;;;7.00;;
10007;SDS011;5043;41.766;26.204;2023-04-06T07:43:13;7.50;;;6.45;;
10007;SDS011;5043;41.766;26.204;2023-04-06T07:45:38;7.88;;;6.93;;
10007;SDS011;5043;41.766;26.204;2023-04-06T07:48:04;7.38;;;6.68;;
10007;SDS011;5043;41.766;26.204;2023-04-06T07:50:29;8.97;;;7.23;;
10007;SDS011;5043;41.766;26.204;2023-04-06T07:52:55;9.75;;;7.43;;
10007;SDS011;5043;41.766;26.204;2023-04-06T07:55:20;9.70;;;6.75;;
10007;SDS011;5043;41.766;26.204;2023-04-06T07:57:46;8.45;;;7.07;;
10007;SDS011;5043;41.766;26.204;2023-04-06T08:00:12;8.45;;;6.57;;
10007;SDS011;5043;41.766;26.204;2023-04-06T08:02:38;9.02;;;7.53;;
10007;SDS011;5043;41.766;26.204;2023-04-06T08:05:03;8.93;;;7.30;;
10007;SDS011;5043;41.766;26.204;2023-04-06T08:07:29;9.80;;;7.90;;
10007;SDS011;5043;41.766;26.204;2023-04-06T08:09:54;12.52;;;7.38;;
10007;SDS011;5043;41.766;26.204;2023-04-06T08:12:20;7.03;;;6.32;;
10007;SDS011;5043;41.766;26.204;2023-04-06T08:14:45;10.50;;;7.30;;
10007;SDS011;5043;41.766;26.204;2023-04-06T08:17:11;8.85;;;7.55;;
10007;SDS011;5043;41.766;26.204;2023-04-06T08:19:36;11.93;;;8.00;;
10007;SDS011;5043;41.766;26.204;2023-04-06T08:22:02;15.95;;;9.98;;
10007;SDS011;5043;41.766;26.204;2023-04-06T08:24:27;10.02;;;7.82;;
10007;SDS011;5043;41.766;26.204;2023-04-06T08:26:53;18.73;;;11.73;;
10007;SDS011;5043;41.766;26.204;2023-04-06T08:29:18;14.13;;;9.45;;
10007;SDS011;5043;41.766;26.204;2023-04-06T08:31:44;17.77;;;11.07;;
10007;SDS011;5043;41.766;26.204;2023-04-06T08:34:09;10.68;;;8.43;;
10007;SDS011;5043;41.766;26.204;2023-04-06T08:36:35;8.10;;;7.30;;
10007;SDS011;5043;41.766;26.204;2023-04-06T08:39:01;8.75;;;7.38;;
10007;SDS011;5043;41.766;26.204;2023-04-06T08:41:27;9.73;;;7.70;;
10007;SDS011;5043;41.766;26.204;2023-04-06T08:43:56;10.05;;;8.02;;
10007;SDS011;5043;41.766;26.204;2023-04-06T08:46:23;8.13;;;6.65;;
10007;SDS011;5043;41.766;26.204;2023-04-06T08:48:55;7.47;;;6.68;;
10007;SDS011;5043;41.766;26.204;2023-04-06T08:51:25;7.95;;;6.88;;
10007;SDS011;5043;41.766;26.204;2023-04-06T08:53:52;7.78;;;6.75;;
10007;SDS011;5043;41.766;26.204;2023-04-06T08:56:21;11.32;;;8.48;;
10007;SDS011;5043;41.766;26.204;2023-04-06T08:58:48;10.90;;;9.05;;
10007;SDS011;5043;41.766;26.204;2023-04-06T09:01:14;6.82;;;6.10;;
10007;SDS011;5043;41.766;26.204;2023-04-06T09:03:42;8.40;;;7.32;;
10007;SDS011;5043;41.766;26.204;2023-04-06T09:06:09;7.38;;;6.68;;
10007;SDS011;5043;41.766;26.204;2023-04-06T09:08:38;5.80;;;5.30;;
10007;SDS011;5043;41.766;26.204;2023-04-06T09:11:05;6.75;;;5.78;;
10007;SDS011;5043;41.766;26.204;2023-04-06T09:13:31;7.28;;;6.30;;
10007;SDS011;5043;41.766;26.204;2023-04-06T09:16:03;6.70;;;6.10;;
10007;SDS011;5043;41.766;26.204;2023-04-06T09:18:30;6.18;;;5.65;;
10007;SDS011;5043;41.766;26.204;2023-04-06T09:20:57;6.30;;;5.70;;
10007;SDS011;5043;41.766;26.204;2023-04-06T09:23:23;5.32;;;4.82;;
10007;SDS011;5043;41.766;26.204;2023-04-06T09:25:49;6.82;;;4.90;;
10007;SDS011;5043;41.766;26.204;2023-04-06T09:28:15;6.75;;;5.50;;
10007;SDS011;5043;41.766;26.204;2023-04-06T09:30:47;6.07;;;5.57;;
10007;SDS011;5043;41.766;26.204;2023-04-06T09:33:21;5.25;;;4.25;;
10007;SDS011;5043;41.766;26.204;2023-04-06T09:35:49;6.13;;;5.53;;
10007;SDS011;5043;41.766;26.204;2023-04-06T09:38:16;5.75;;;5.20;;
10007;SDS011;5043;41.766;26.204;2023-04-06T09:40:48;4.82;;;4.30;;
10007;SDS011;5043;41.766;26.204;2023-04-06T09:43:27;5.25;;;4.75;;
10007;SDS011;5043;41.766;26.204;2023-04-06T09:45:53;4.47;;;4.18;;
10007;SDS011;5043;41.766;26.204;2023-04-06T09:48:24;5.57;;;5.07;;
10007;SDS011;5043;41.766;26.204;2023-04-06T09:50:53;5.38;;;4.88;;
10007;SDS011;5043;41.766;26.204;2023-04-06T09:53:25;5.35;;;4.85;;
10007;SDS011;5043;41.766;26.204;2023-04-06T09:55:53;5.90;;;5.28;;
10007;SDS011;5043;41.766;26.204;2023-04-06T09:58:22;5.20;;;4.75;;
10007;SDS011;5043;41.766;26.204;2023-04-06T10:01:08;4.68;;;4.28;;
10007;SDS011;5043;41.766;26.204;2023-04-06T10:06:07;5.05;;;4.65;;
10007;SDS011;5043;41.766;26.204;2023-04-06T10:08:38;5.40;;;4.80;;
10007;SDS011;5043;41.766;26.204;2023-04-06T10:11:07;4.72;;;4.22;;
10007;SDS011;5043;41.766;26.204;2023-04-06T10:13:35;5.82;;;4.65;;
10007;SDS011;5043;41.766;26.204;2023-04-06T10:16:01;4.65;;;4.25;;
10007;SDS011;5043;41.766;26.204;2023-04-06T10:18:28;5.03;;;4.53;;
10007;SDS011;5043;41.766;26.204;2023-04-06T10:20:59;5.85;;;4.78;;
10007;SDS011;5043;41.766;26.204;2023-04-06T10:23:45;5.22;;;4.72;;
10007;SDS011;5043;41.766;26.204;2023-04-06T10:26:15;4.75;;;4.30;;
10007;SDS011;5043;41.766;26.204;2023-04-06T10:28:43;4.93;;;4.43;;
10007;SDS011;5043;41.766;26.204;2023-04-06T10:31:10;5.22;;;3.85;;
10007;SDS011;5043;41.766;26.204;2023-04-06T10:33:36;4.40;;;4.00;;
10007;SDS011;5043;41.766;26.204;2023-04-06T10:36:12;4.88;;;4.47;;
10007;SDS011;5043;41.766;26.204;2023-04-06T10:38:40;4.43;;;3.72;;
10007;SDS011;5043;41.766;26.204;2023-04-06T10:41:09;4.10;;;3.70;;
10007;SDS011;5043;41.766;26.204;2023-04-06T10:43:37;5.55;;;3.88;;
10007;SDS011;5043;41.766;26.204;2023-04-06T10:46:04;3.58;;;3.28;;
10007;SDS011;5043;41.766;26.204;2023-04-06T10:48:41;3.95;;;3.60;;
10007;SDS011;5043;41.766;26.204;2023-04-06T10:51:11;4.45;;;4.05;;
10007;SDS011;5043;41.766;26.204;2023-04-06T10:53:46;4.95;;;3.40;;
10007;SDS011;5043;41.766;26.204;2023-04-06T10:56:17;3.63;;;3.30;;
10007;SDS011;5043;41.766;26.204;2023-04-06T10:58:46;4.47;;;3.50;;
10007;SDS011;5043;41.766;26.204;2023-04-06T11:01:14;3.83;;;3.53;;
10007;SDS011;5043;41.766;26.204;2023-04-06T11:03:48;4.13;;;3.72;;
10007;SDS011;5043;41.766;26.204;2023-04-06T11:06:21;4.43;;;4.03;;
10007;SDS011;5043;41.766;26.204;2023-04-06T11:08:48;4.00;;;3.67;;
10007;SDS011;5043;41.766;26.204;2023-04-06T11:11:15;5.15;;;3.50;;
10007;SDS011;5043;41.766;26.204;2023-04-06T11:13:50;4.50;;;4.10;;
10007;SDS011;5043;41.766;26.204;2023-04-06T11:18:55;4.22;;;3.83;;
10007;SDS011;5043;41.766;26.204;2023-04-06T11:26:47;4.40;;;4.00;;
10007;SDS011;5043;41.766;26.204;2023-04-06T11:29:22;4.32;;;3.88;;
10007;SDS011;5043;41.766;26.204;2023-04-06T11:31:48;4.88;;;4.40;;
10007;SDS011;5043;41.766;26.204;2023-04-06T11:34:22;4.85;;;4.35;;
10007;SDS011;5043;41.766;26.204;2023-04-06T11:36:49;6.28;;;4.25;;
10007;SDS011;5043;41.766;26.204;2023-04-06T11:39:20;5.97;;;3.88;;
10007;SDS011;5043;41.766;26.204;2023-04-06T11:41:48;6.05;;;4.18;;
10007;SDS011;5043;41.766;26.204;2023-04-06T11:44:15;3.88;;;3.55;;
10007;SDS011;5043;41.766;26.204;2023-04-06T11:46:41;5.90;;;4.15;;
10007;SDS011;5043;41.766;26.204;2023-04-06T11:49:16;5.65;;;4.20;;
10007;SDS011;5043;41.766;26.204;2023-04-06T11:51:42;5.85;;;3.92;;
10007;SDS011;5043;41.766;26.204;2023-04-06T11:54:08;5.25;;;3.90;;
10007;SDS011;5043;41.766;26.204;2023-04-06T11:56:35;7.05;;;3.92;;
10007;SDS011;5043;41.766;26.204;2023-04-06T11:59:03;3.90;;;3.60;;
10007;SDS011;5043;41.766;26.204;2023-04-06T12:01:29;4.80;;;4.35;;
10007;SDS011;5043;41.766;26.204;2023-04-06T12:03:55;9.50;;;6.90;;
10007;SDS011;5043;41.766;26.204;2023-04-06T12:06:20;4.40;;;4.00;;
10007;SDS011;5043;41.766;26.204;2023-04-06T12:08:46;3.60;;;3.30;;
10007;SDS011;5043;41.766;26.204;2023-04-06T12:11:12;3.97;;;3.67;;
10007;SDS011;5043;41.766;26.204;2023-04-06T12:13:37;4.95;;;4.47;;
10007;SDS011;5043;41.766;26.204;2023-04-06T12:16:03;5.40;;;4.90;;
10007;SDS011;5043;41.766;26.204;2023-04-06T12:18:29;4.80;;;4.30;;
10007;SDS011;5043;41.766;26.204;2023-04-06T12:20:55;5.03;;;4.13;;
10007;SDS011;5043;41.766;26.204;2023-04-06T12:23:20;5.57;;;3.53;;
10007;SDS011;5043;41.766;26.204;2023-04-06T12:25:47;3.15;;;2.88;;
10007;SDS011;5043;41.766;26.204;2023-04-06T12:28:14;2.80;;;2.60;;
10007;SDS011;5043;41.766;26.204;2023-04-06T12:30:40;3.58;;;2.47;;
10007;SDS011;5043;41.766;26.204;2023-04-06T12:33:06;3.92;;;3.38;;
10007;SDS011;5043;41.766;26.204;2023-04-06T12:35:35;2.88;;;2.67;;
10007;SDS011;5043;41.766;26.204;2023-04-06T12:38:02;2.60;;;2.40;;
10007;SDS011;5043;41.766;26.204;2023-04-06T12:40:29;3.75;;;3.45;;
10007;SDS011;5043;41.766;26.204;2023-04-06T12:42:55;3.40;;;3.10;;
10007;SDS011;5043;41.766;26.204;2023-04-06T12:48:31;2.97;;;2.78;;
10007;SDS011;5043;41.766;26.204;2023-04-06T12:50:57;3.17;;;2.88;;
10007;SDS011;5043;41.766;26.204;2023-04-06T12:53:24;2.80;;;2.60;;
10007;SDS011;5043;41.766;26.204;2023-04-06T12:55:50;2.70;;;2.50;;
10007;SDS011;5043;41.766;26.204;2023-04-06T12:58:16;2.10;;;2.00;;
10007;SDS011;5043;41.766;26.204;2023-04-06T13:00:42;5.03;;;2.20;;
10007;SDS011;5043;41.766;26.204;2023-04-06T13:03:07;2.92;;;2.45;;
10007;SDS011;5043;41.766;26.204;2023-04-06T13:05:33;2.92;;;2.63;;
10007;SDS011;5043;41.766;26.204;2023-04-06T13:07:58;2.33;;;2.22;;
10007;SDS011;5043;41.766;26.204;2023-04-06T13:10:24;2.13;;;2.00;;
10007;SDS011;5043;41.766;26.204;2023-04-06T13:12:49;2.10;;;2.00;;
10007;SDS011;5043;41.766;26.204;2023-04-06T13:15:15;2.60;;;2.40;;
10007;SDS011;5043;41.766;26.204;2023-04-06T13:17:41;2.35;;;2.17;;
10007;SDS011;5043;41.766;26.204;2023-04-06T13:20:06;2.58;;;2.15;;
10007;SDS011;5043;41.766;26.204;2023-04-06T13:22:32;2.33;;;2.13;;
10007;SDS011;5043;41.766;26.204;2023-04-06T13:24:58;2.72;;;2.00;;
10007;SDS011;5043;41.766;26.204;2023-04-06T13:27:23;2.63;;;2.17;;
10007;SDS011;5043;41.766;26.204;2023-04-06T13:29:49;1.92;;;1.83;;
10007;SDS011;5043;41.766;26.204;2023-04-06T13:32:14;2.05;;;1.80;;
10007;SDS011;5043;41.766;26.204;2023-04-06T13:34:39;1.73;;;1.63;;
10007;SDS011;5043;41.766;26.204;2023-04-06T13:37:09;1.90;;;1.80;;
10007;SDS011;5043;41.766;26.204;2023-04-06T13:39:38;3.30;;;1.90;;
10007;SDS011;5043;41.766;26.204;2023-04-06T13:42:03;2.30;;;2.10;;
10007;SDS011;5043;41.766;26.204;2023-04-06T13:44:29;3.03;;;2.10;;
10007;SDS011;5043;41.766;26.204;2023-04-06T13:46:55;2.22;;;2.03;;
10007;SDS011;5043;41.766;26.204;2023-04-06T13:49:21;3.05;;;2.75;;
10007;SDS011;5043;41.766;26.204;2023-04-06T13:51:47;2.08;;;1.98;;
10007;SDS011;5043;41.766;26.204;2023-04-06T13:54:12;1.80;;;1.70;;
10007;SDS011;5043;41.766;26.204;2023-04-06T13:56:38;1.88;;;1.77;;
10007;SDS011;5043;41.766;26.204;2023-04-06T13:59:03;3.33;;;1.88;;
10007;SDS011;5043;41.766;26.204;2023-04-06T14:01:29;2.55;;;2.35;;
10007;SDS011;5043;41.766;26.204;2023-04-06T14:03:54;2.63;;;2.42;;
10007;SDS011;5043;41.766;26.204;2023-04-06T14:06:20;2.40;;;2.25;;
10007;SDS011;5043;41.766;26.204;2023-04-06T14:08:45;2.58;;;2.20;;
10007;SDS011;5043;41.766;26.204;2023-04-06T14:11:12;2.53;;;2.10;;
10007;SDS011;5043;41.766;26.204;2023-04-06T14:13:38;3.58;;;2.00;;
10007;SDS011;5043;41.766;26.204;2023-04-06T14:16:04;1.90;;;1.80;;
10007;SDS011;5043;41.766;26.204;2023-04-06T14:18:30;2.60;;;2.40;;
10007;SDS011;5043;41.766;26.204;2023-04-06T14:20:56;2.20;;;2.00;;
10007;SDS011;5043;41.766;26.204;2023-04-06T14:23:22;2.58;;;2.13;;
10007;SDS011;5043;41.766;26.204;2023-04-06T14:25:50;3.03;;;2.63;;
10007;SDS011;5043;41.766;26.204;2023-04-06T14:28:16;2.72;;;2.47;;
10007;SDS011;5043;41.766;26.204;2023-04-06T14:30:41;2.67;;;2.17;;
10007;SDS011;5043;41.766;26.204;2023-04-06T14:33:07;2.70;;;2.17;;
10007;SDS011;5043;41.766;26.204;2023-04-06T14:35:32;2.08;;;1.98;;
10007;SDS011;5043;41.766;26.204;2023-04-06T14:37:58;2.90;;;2.38;;
10007;SDS011;5043;41.766;26.204;2023-04-06T14:40:24;2.88;;;2.42;;
10007;SDS011;5043;41.766;26.204;2023-04-06T14:42:49;2.42;;;2.28;;
10007;SDS011;5043;41.766;26.204;2023-04-06T14:45:19;2.63;;;2.42;;
10007;SDS011;5043;41.766;26.204;2023-04-06T14:47:46;4.32;;;2.45;;
10007;SDS011;5043;41.766;26.204;2023-04-06T14:50:12;3.03;;;2.72;;